Time;durP1;ratioP1;P1;durP2;ratioP2;P2;SDS_P1;SDS_P2;PMS_P1;PMS_P2;Temp;Humidity;BMP_temperature;BMP_pressure;BME280_temperature;BME280_humidity;BME280_pressure;Samples;Min_cycle;Max_cycle;Signal;HPM_P1;HPM_P2
2022/12/05 00:00:46;;;;;;;36.97;22.47;;;;;;;4.36;78.95;100551.72;4157114;28;20037;-68
2022/12/05 00:02:49;;;;;;;39.20;21.70;;;;;;;4.32;78.93;100556.69;4154828;28;20296;-68
2022/12/05 00:04:51;;;;;;;41.40;21.75;;;;;;;4.17;78.89;100562.94;4154939;28;20048;-68
2022/12/05 00:06:56;;;;;;;39.60;22.48;;;;;;;4.07;79.21;100560.81;4156832;28;20132;-68
2022/12/05 00:09:00;;;;;;;38.78;21.17;;;;;;;4.00;79.21;100561.38;4157037;28;20408;-68
2022/12/05 00:11:02;;;;;;;37.67;22.73;;;;;;;3.94;79.42;100561.09;4163822;28;20049;-68
2022/12/05 00:13:06;;;;;;;34.63;20.58;;;;;;;3.90;79.88;100569.50;4160433;28;20514;-68
2022/12/05 00:15:11;;;;;;;40.35;21.70;;;;;;;3.93;79.60;100564.47;4159330;28;20069;-68
2022/12/05 00:17:14;;;;;;;44.65;23.27;;;;;;;3.94;79.40;100563.69;4159164;28;20068;-69
2022/12/05 00:19:17;;;;;;;37.83;21.20;;;;;;;3.95;79.69;100565.44;4160600;28;20033;-69
2022/12/05 00:21:23;;;;;;;38.70;22.00;;;;;;;3.96;79.42;100567.22;4159159;28;20522;-68
2022/12/05 00:23:27;;;;;;;36.75;21.58;;;;;;;3.93;79.46;100567.97;4158932;28;20037;-68
2022/12/05 00:25:30;;;;;;;40.20;21.95;;;;;;;3.88;79.86;100569.44;4162615;28;20049;-68
2022/12/05 00:27:33;;;;;;;38.40;22.23;;;;;;;3.85;79.90;100566.75;4161939;28;20041;-68
2022/12/05 00:29:36;;;;;;;40.05;21.67;;;;;;;3.87;79.99;100567.69;4162970;28;20029;-69
2022/12/05 00:31:39;;;;;;;35.30;20.17;;;;;;;3.92;79.75;100570.47;4162372;28;20065;-68
2022/12/05 00:33:43;;;;;;;34.38;20.52;;;;;;;3.94;79.51;100569.72;4164321;28;20193;-68
2022/12/05 00:35:46;;;;;;;36.75;20.67;;;;;;;3.95;79.39;100575.75;4157766;28;20045;-69
2022/12/05 00:37:49;;;;;;;37.25;20.85;;;;;;;3.96;79.49;100573.22;4154315;28;20037;-69
2022/12/05 00:39:53;;;;;;;33.83;19.67;;;;;;;3.98;79.23;100578.44;4161124;28;20041;-69
2022/12/05 00:41:56;;;;;;;33.83;19.40;;;;;;;3.90;79.52;100578.13;4149771;28;20164;-68
2022/12/05 00:44:00;;;;;;;43.67;21.45;;;;;;;3.83;79.47;100576.97;4161614;28;20484;-69
2022/12/05 00:46:04;;;;;;;33.83;19.10;;;;;;;3.80;80.07;100574.25;4166757;28;20033;-69
2022/12/05 00:48:07;;;;;;;36.58;20.90;;;;;;;3.87;80.08;100582.22;4160937;28;20041;-68
2022/12/05 00:50:10;;;;;;;31.48;18.60;;;;;;;3.94;79.42;100577.44;4157916;28;20056;-69
2022/12/05 00:52:13;;;;;;;42.17;22.00;;;;;;;3.93;79.78;100577.34;4163338;28;20049;-69
2022/12/05 00:54:16;;;;;;;37.40;21.65;;;;;;;3.84;79.69;100581.31;4156041;28;20049;-68
2022/12/05 00:56:22;;;;;;;34.92;19.92;;;;;;;3.88;79.72;100573.72;4146968;28;20049;-68
2022/12/05 00:58:25;;;;;;;33.03;19.00;;;;;;;3.93;79.36;100578.25;4148221;28;20052;-68
2022/12/05 01:00:28;;;;;;;36.65;20.58;;;;;;;3.93;79.39;100580.81;4146897;28;20077;-68
2022/12/05 01:02:31;;;;;;;37.70;20.63;;;;;;;4.01;79.42;100588.84;4148056;28;20053;-69
2022/12/05 01:04:33;;;;;;;46.40;23.52;;;;;;;4.08;79.26;100584.88;4152811;28;20041;-69
2022/12/05 01:06:37;;;;;;;39.92;21.05;;;;;;;4.09;79.37;100584.94;4163021;28;20398;-69
2022/12/05 01:08:40;;;;;;;42.38;21.80;;;;;;;4.10;79.23;100589.22;4164300;28;20045;-69
2022/12/05 01:10:52;;;;;;;37.13;20.95;;;;;;;4.16;79.06;100592.09;4161154;28;20050;-70
2022/12/05 01:12:57;;;;;;;39.80;20.67;;;;;;;4.14;79.08;100595.41;4148038;28;20041;-69
2022/12/05 01:15:00;;;;;;;36.38;19.67;;;;;;;4.07;78.92;100593.38;4146873;28;20045;-68
2022/12/05 01:17:03;;;;;;;38.47;21.35;;;;;;;4.09;79.04;100595.22;4159541;28;20044;-68
2022/12/05 01:19:08;;;;;;;35.67;20.95;;;;;;;4.09;79.13;100597.78;4162617;28;20068;-68
2022/12/05 01:21:12;;;;;;;38.10;20.38;;;;;;;4.14;79.03;100598.84;4159371;28;20037;-69
2022/12/05 01:23:15;;;;;;;43.63;20.83;;;;;;;4.14;79.03;100590.25;4154341;28;20033;-68
2022/12/05 01:25:18;;;;;;;34.03;19.45;;;;;;;4.15;79.15;100599.75;4159838;28;20072;-69
2022/12/05 01:27:21;;;;;;;33.35;19.65;;;;;;;4.14;78.79;100597.97;4161819;28;20384;-68
2022/12/05 01:29:25;;;;;;;40.25;20.65;;;;;;;4.18;78.98;100599.88;4162925;28;20033;-68
2022/12/05 01:31:30;;;;;;;40.03;21.25;;;;;;;4.19;78.52;100597.38;4154283;28;20091;-68
2022/12/05 01:33:34;;;;;;;;;;;;;;;4.14;78.57;100596.28;4154662;28;20041;-68
2022/12/05 01:35:38;;;;;;;35.53;20.63;;;;;;;4.16;78.94;100597.25;4159256;28;19922;-68
2022/12/05 01:37:41;;;;;;;36.35;19.40;;;;;;;4.19;78.60;100592.22;4161843;28;20114;-68
2022/12/05 01:39:44;;;;;;;39.75;21.15;;;;;;;4.22;78.70;100595.72;4155486;28;20079;-68
2022/12/05 01:41:48;;;;;;;42.47;20.70;;;;;;;4.25;78.67;100593.28;4160945;28;20036;-68
2022/12/05 01:43:56;;;;;;;37.95;19.60;;;;;;;4.26;78.81;100600.19;4158847;28;20410;-68
2022/12/05 01:46:00;;;;;;;44.53;23.42;;;;;;;4.23;78.84;100605.22;4149665;28;20108;-68
2022/12/05 01:48:07;;;;;;;48.53;22.92;;;;;;;4.22;78.68;100603.44;4160632;28;20061;-69
2022/12/05 01:50:11;;;;;;;36.83;20.08;;;;;;;4.26;78.69;100602.75;4160630;28;20044;-69
2022/12/05 01:52:18;;;;;;;39.60;20.02;;;;;;;4.27;78.83;100618.25;4158249;28;20407;-68
2022/12/05 01:54:22;;;;;;;44.05;22.73;;;;;;;4.21;78.70;100615.44;4157335;28;20124;-68
2022/12/05 01:56:25;;;;;;;43.92;22.05;;;;;;;4.06;78.83;100615.66;4159939;28;20037;-68
2022/12/05 01:58:32;;;;;;;43.38;21.83;;;;;;;4.05;79.00;100608.75;4158115;28;20519;-68
2022/12/05 02:00:35;;;;;;;41.47;21.52;;;;;;;4.05;79.26;100613.03;4146071;28;20053;-69
2022/12/05 02:02:44;;;;;;;37.28;19.73;;;;;;;4.05;78.82;100616.47;4153319;28;20108;-68
2022/12/05 02:04:55;;;;;;;42.75;22.42;;;;;;;3.98;79.17;100611.88;4159252;28;20052;-68
2022/12/05 02:06:57;;;;;;;43.28;21.63;;;;;;;3.94;79.22;100617.69;4157177;28;20091;-68
2022/12/05 02:09:01;;;;;;;42.72;20.42;;;;;;;3.94;79.66;100622.84;4166946;28;20042;-68
2022/12/05 02:11:06;;;;;;;47.10;22.00;;;;;;;3.97;79.35;100628.13;4162560;28;20446;-68
2022/12/05 02:13:25;;;;;;;47.60;23.08;;;;;;;3.97;79.30;100630.69;4171696;28;20096;-68
2022/12/05 02:15:41;;;;;;;45.97;24.30;;;;;;;4.02;79.51;100624.06;4156588;28;20124;-68
2022/12/05 02:17:54;;;;;;;39.75;20.33;;;;;;;4.04;79.60;100619.84;4161577;28;20041;-69
2022/12/05 02:20:07;;;;;;;43.58;22.25;;;;;;;3.98;79.79;100624.75;4160779;28;20148;-68
2022/12/05 02:22:48;;;;;;;40.92;21.15;;;;;;;3.93;79.60;100623.66;4159862;28;20042;-68
2022/12/05 02:25:11;;;;;;;47.15;21.15;;;;;;;3.95;79.38;100633.19;4128191;28;20072;-68
2022/12/05 02:27:33;;;;;;;42.78;21.48;;;;;;;3.93;79.38;100624.53;4160603;28;20084;-68
2022/12/05 02:29:57;;;;;;;44.50;24.63;;;;;;;3.88;79.86;100622.56;4159387;28;20046;-68
2022/12/05 02:32:07;;;;;;;48.13;22.83;;;;;;;3.78;79.29;100619.63;4158277;28;20037;-68
2022/12/05 02:34:18;;;;;;;40.65;21.30;;;;;;;3.74;79.74;100628.00;4161359;28;20574;-67
2022/12/05 02:36:25;;;;;;;42.20;22.05;;;;;;;3.77;79.85;100627.25;4160484;28;20468;-69
2022/12/05 02:38:33;;;;;;;40.72;20.52;;;;;;;3.86;79.67;100632.78;4165676;28;20034;-68
2022/12/05 02:40:44;;;;;;;46.30;23.38;;;;;;;3.91;79.63;100630.44;4154791;28;20034;-68
2022/12/05 02:42:53;;;;;;;42.95;21.77;;;;;;;3.88;80.00;100633.72;4159742;28;20034;-68
2022/12/05 02:45:02;;;;;;;52.75;24.05;;;;;;;3.86;79.65;100634.50;4158471;28;20466;-68
2022/12/05 02:47:08;;;;;;;46.10;23.88;;;;;;;3.86;79.79;100637.06;4163057;28;20038;-68
2022/12/05 02:49:16;;;;;;;43.10;22.25;;;;;;;3.92;79.81;100647.63;4159049;28;20041;-69
2022/12/05 02:51:22;;;;;;;41.95;21.88;;;;;;;3.98;79.89;100645.31;4164934;28;20033;-68
2022/12/05 02:53:26;;;;;;;45.38;23.55;;;;;;;4.00;79.56;100647.16;4163869;28;20091;-68
2022/12/05 02:55:30;;;;;;;52.10;25.38;;;;;;;4.03;79.45;100656.69;4163775;28;20034;-68
2022/12/05 02:57:34;;;;;;;38.80;21.23;;;;;;;4.08;79.42;100662.91;4159509;28;20067;-69
2022/12/05 02:59:37;;;;;;;48.53;23.42;;;;;;;4.09;79.04;100662.09;4164622;28;20367;-69
2022/12/05 03:01:45;;;;;;;49.75;25.25;;;;;;;4.14;79.28;100670.88;4158549;28;20075;-69
2022/12/05 03:03:48;;;;;;;42.90;21.83;;;;;;;4.18;79.28;100672.78;4158526;28;20045;-69
2022/12/05 03:05:57;;;;;;;49.70;25.08;;;;;;;4.21;79.02;100666.91;4158273;28;20048;-69
2022/12/05 03:08:03;;;;;;;40.88;21.25;;;;;;;4.17;79.34;100676.16;4160041;28;20052;-68
2022/12/05 03:10:08;;;;;;;52.60;25.60;;;;;;;4.17;79.23;100672.72;4165013;28;20049;-69
2022/12/05 03:12:17;;;;;;;41.60;20.55;;;;;;;4.16;79.12;100677.00;4163820;28;20033;-69
2022/12/05 03:14:23;;;;;;;43.92;22.58;;;;;;;4.22;79.24;100676.38;4162202;28;20037;-69
2022/12/05 03:16:31;;;;;;;45.63;22.95;;;;;;;4.22;79.25;100673.81;4154866;28;20037;-69
2022/12/05 03:18:39;;;;;;;44.47;23.10;;;;;;;4.25;79.23;100678.19;4161816;28;20095;-69
2022/12/05 03:20:44;;;;;;;52.55;24.92;;;;;;;4.17;78.89;100676.16;4162587;28;20105;-69
2022/12/05 03:22:54;;;;;;;51.25;25.25;;;;;;;4.14;78.98;100676.03;4165734;28;20037;-69
2022/12/05 03:24:58;;;;;;;47.17;24.73;;;;;;;4.14;79.14;100677.75;4157008;28;20042;-69
2022/12/05 03:27:07;;;;;;;46.15;22.85;;;;;;;4.13;79.29;100673.41;4163553;28;20042;-69
2022/12/05 03:29:22;;;;;;;57.00;25.88;;;;;;;4.13;79.07;100676.88;4161104;28;20029;-69
2022/12/05 03:31:33;;;;;;;47.55;24.05;;;;;;;4.13;79.09;100678.53;4163362;28;20092;-68
2022/12/05 03:33:44;;;;;;;54.65;24.45;;;;;;;4.14;79.29;100686.31;4162766;28;20037;-68
2022/12/05 03:35:57;;;;;;;55.83;26.27;;;;;;;4.17;79.26;100681.31;4157475;28;20038;-69
2022/12/05 03:38:07;;;;;;;52.13;25.20;;;;;;;4.22;79.08;100685.78;4150689;28;20100;-69
2022/12/05 03:40:19;;;;;;;50.85;23.17;;;;;;;4.20;78.96;100685.72;4157767;28;20041;-68
2022/12/05 03:42:31;;;;;;;46.95;22.80;;;;;;;4.22;79.21;100688.34;4163638;28;20030;-68
2022/12/05 03:44:42;;;;;;;47.78;23.70;;;;;;;4.25;79.22;100693.63;4152863;28;20071;-68
2022/12/05 03:46:53;;;;;;;46.78;22.70;;;;;;;4.30;78.89;100693.03;4161364;28;20496;-68
2022/12/05 03:49:03;;;;;;;48.33;23.40;;;;;;;4.15;78.91;100695.81;4156443;28;20491;-69
2022/12/05 03:51:10;;;;;;;47.65;23.30;;;;;;;4.11;78.94;100701.63;4157803;28;20045;-69
2022/12/05 03:53:17;;;;;;;49.53;20.23;;;;;;;4.14;79.08;100698.31;4159319;28;20037;-68
2022/12/05 03:55:27;;;;;;;44.33;21.35;;;;;;;4.14;78.97;100696.63;4159955;28;20095;-69
2022/12/05 03:57:36;;;;;;;43.25;23.25;;;;;;;4.16;79.13;100697.59;4159833;28;20084;-69
2022/12/05 03:59:44;;;;;;;43.58;20.13;;;;;;;4.17;79.41;100699.31;4159934;28;20452;-69
2022/12/05 04:01:48;;;;;;;40.28;21.65;;;;;;;4.19;79.33;100699.38;4156041;28;20049;-68
2022/12/05 04:03:57;;;;;;;37.70;21.52;;;;;;;4.23;78.76;100703.00;4155706;28;20503;-69
2022/12/05 04:06:03;;;;;;;46.10;24.02;;;;;;;4.12;79.05;100703.41;4163467;28;20053;-69
2022/12/05 04:08:12;;;;;;;42.25;21.38;;;;;;;4.15;79.18;100707.81;4164548;28;20099;-69
2022/12/05 04:10:20;;;;;;;42.85;21.42;;;;;;;4.16;79.32;100710.44;4146161;28;20045;-69
2022/12/05 04:12:27;;;;;;;46.28;22.50;;;;;;;4.21;79.32;100718.38;4165106;28;20040;-68
2022/12/05 04:14:34;;;;;;;38.20;20.45;;;;;;;4.19;79.04;100700.28;4153752;28;20072;-69
2022/12/05 04:19:08;;;;;;;51.28;25.08;;;;;;;4.27;79.00;100692.03;4157579;28;20067;-69
2022/12/05 04:23:34;;;;;;;40.95;21.17;;;;;;;4.38;78.50;100690.81;4155967;28;20495;-68
2022/12/05 04:25:45;;;;;;;47.88;23.70;;;;;;;4.33;78.70;100694.84;4161291;28;20042;-68
2022/12/05 04:27:54;;;;;;;49.40;24.95;;;;;;;4.36;78.76;100692.41;4162795;28;20143;-69
2022/12/05 04:30:03;;;;;;;47.50;23.15;;;;;;;4.37;78.84;100694.19;4157676;28;20053;-69
2022/12/05 04:32:10;;;;;;;49.13;22.80;;;;;;;4.37;78.95;100701.91;4163636;28;20068;-69
2022/12/05 04:34:15;;;;;;;49.33;24.63;;;;;;;4.38;78.94;100698.53;4160360;28;20508;-69
2022/12/05 04:36:22;;;;;;;51.58;23.80;;;;;;;4.43;78.96;100697.00;4164677;28;20060;-69
2022/12/05 04:38:30;;;;;;;53.22;25.23;;;;;;;4.43;78.67;100694.44;4155635;28;20045;-68
2022/12/05 04:40:37;;;;;;;46.65;20.98;;;;;;;4.40;78.55;100694.31;4156563;28;20085;-68
2022/12/05 04:42:42;;;;;;;54.72;24.50;;;;;;;4.39;78.84;100702.84;4162016;28;20037;-69
2022/12/05 04:44:49;;;;;;;45.25;20.13;;;;;;;4.40;78.78;100704.59;4156748;28;20041;-70
2022/12/05 04:46:54;;;;;;;44.30;22.30;;;;;;;4.41;78.85;100715.75;4154757;28;20041;-69
2022/12/05 04:49:01;;;;;;;48.08;22.30;;;;;;;4.42;78.81;100715.84;4157154;28;20530;-69
2022/12/05 04:51:07;;;;;;;41.90;20.58;;;;;;;4.41;78.91;100714.09;4163215;28;20045;-69
2022/12/05 04:53:14;;;;;;;47.00;22.88;;;;;;;4.44;78.80;100706.50;4159706;28;20885;-69
2022/12/05 04:55:24;;;;;;;42.17;21.58;;;;;;;4.46;78.87;100704.00;4161066;28;20099;-69
2022/12/05 04:57:30;;;;;;;44.55;22.70;;;;;;;4.44;78.72;100698.78;4157268;28;20504;-68
2022/12/05 04:59:34;;;;;;;42.08;20.88;;;;;;;4.45;78.90;100695.38;4161838;28;20650;-68
2022/12/05 05:01:42;;;;;;;46.28;23.65;;;;;;;4.47;78.75;100706.63;4154683;28;20403;-68
2022/12/05 05:03:50;;;;;;;46.13;22.48;;;;;;;4.47;78.61;100701.47;4157307;28;20042;-69
2022/12/05 05:05:55;;;;;;;48.05;21.92;;;;;;;4.38;78.82;100693.38;4160845;28;20063;-68
2022/12/05 05:07:58;;;;;;;49.28;25.33;;;;;;;4.38;78.98;100690.81;4158466;28;20037;-68
2022/12/05 05:10:02;;;;;;;45.75;22.48;;;;;;;4.39;78.93;100691.66;4158106;28;20069;-67
2022/12/05 05:12:06;;;;;;;40.83;20.25;;;;;;;4.35;78.86;100696.69;4158988;28;20559;-67
2022/12/05 05:14:09;;;;;;;48.42;21.80;;;;;;;4.36;79.04;100698.44;4154959;28;20050;-67
2022/12/05 05:16:16;;;;;;;42.97;21.17;;;;;;;4.42;78.88;100697.81;4159686;28;20033;-67
2022/12/05 05:18:19;;;;;;;44.40;21.17;;;;;;;4.42;79.02;100702.97;4157957;28;20041;-67
2022/12/05 05:20:26;;;;;;;31.98;14.82;;;;;;;4.76;81.59;100704.41;4156431;28;20043;-57
2022/12/05 05:22:29;;;;;;;47.05;21.45;;;;;;;5.41;83.69;100694.97;4160375;28;20037;-66
2022/12/05 05:24:31;;;;;;;38.95;20.60;;;;;;;5.30;80.39;100703.09;4160720;28;20033;-66
2022/12/05 05:26:38;;;;;;;45.03;22.50;;;;;;;5.18;78.73;100708.66;4155215;28;20362;-66
2022/12/05 05:28:41;;;;;;;52.42;23.70;;;;;;;5.03;78.34;100709.78;4158369;28;20041;-66
2022/12/05 05:30:43;;;;;;;41.95;20.73;;;;;;;4.89;78.03;100713.50;4163106;28;20438;-66
2022/12/05 05:32:47;;;;;;;43.88;20.60;;;;;;;4.79;78.44;100703.63;4159452;28;20033;-66
2022/12/05 05:34:50;;;;;;;38.63;20.13;;;;;;;4.73;78.47;100704.25;4155230;28;20041;-66
2022/12/05 05:36:52;;;;;;;40.90;21.92;;;;;;;4.70;78.66;100717.00;4151993;28;20053;-66
2022/12/05 05:38:57;;;;;;;40.78;22.13;;;;;;;4.71;78.35;100721.34;4158042;28;20068;-67
2022/12/05 05:41:00;;;;;;;40.53;22.70;;;;;;;4.68;78.68;100724.66;4153493;28;20048;-67
2022/12/05 05:43:04;;;;;;;38.97;20.30;;;;;;;4.65;78.80;100721.09;4152607;28;20041;-67
2022/12/05 05:45:09;;;;;;;46.15;21.98;;;;;;;4.61;78.84;100716.63;4160729;28;20495;-67
2022/12/05 05:47:11;;;;;;;43.72;21.98;;;;;;;4.59;79.03;100719.13;4163691;28;20042;-67
2022/12/05 05:49:14;;;;;;;37.92;20.13;;;;;;;4.60;78.81;100720.00;4163997;28;20037;-67
2022/12/05 05:51:18;;;;;;;43.97;20.58;;;;;;;4.58;78.84;100724.22;4163836;28;20041;-67
2022/12/05 05:53:21;;;;;;;40.30;20.27;;;;;;;4.57;78.79;100730.19;4162270;28;20534;-67
2022/12/05 05:55:24;;;;;;;41.00;20.60;;;;;;;4.58;79.00;100730.25;4162608;28;20046;-67
2022/12/05 05:57:27;;;;;;;43.25;22.20;;;;;;;4.63;78.89;100735.59;4162723;28;20095;-67
2022/12/05 05:59:31;;;;;;;40.67;19.38;;;;;;;4.60;78.93;100743.19;4146400;28;20503;-67
2022/12/05 06:01:34;;;;;;;35.58;18.38;;;;;;;4.57;79.06;100743.97;4167328;28;20041;-67
2022/12/05 06:03:37;;;;;;;48.17;23.98;;;;;;;4.62;79.08;100741.56;4156720;28;20038;-68
2022/12/05 06:05:40;;;;;;;43.08;22.20;;;;;;;4.64;78.64;100745.09;4150793;28;20042;-67
2022/12/05 06:07:43;;;;;;;44.72;21.67;;;;;;;4.63;78.74;100749.38;4150742;28;20092;-68
2022/12/05 06:09:46;;;;;;;49.72;23.35;;;;;;;4.59;78.90;100741.44;4165876;28;20045;-67
2022/12/05 06:11:49;;;;;;;37.53;19.08;;;;;;;4.55;79.04;100741.28;4164487;28;20045;-68
2022/12/05 06:13:52;;;;;;;43.60;22.10;;;;;;;4.55;78.93;100737.84;4166249;28;20447;-67
2022/12/05 06:15:56;;;;;;;40.75;20.05;;;;;;;4.58;78.94;100743.13;4166996;28;20041;-67
2022/12/05 06:17:58;;;;;;;40.33;19.20;;;;;;;4.58;78.89;100740.53;4167207;28;20144;-68
2022/12/05 06:20:01;;;;;;;39.92;21.08;;;;;;;4.61;78.83;100743.25;4165830;28;20041;-68
2022/12/05 06:22:04;;;;;;;42.22;22.77;;;;;;;4.66;78.84;100754.63;4166943;28;20041;-67
2022/12/05 06:24:08;;;;;;;40.47;21.45;;;;;;;4.68;78.74;100750.41;4165991;28;20407;-67
2022/12/05 06:26:13;;;;;;;44.15;20.77;;;;;;;4.63;78.73;100745.88;4167162;28;20557;-67
2022/12/05 06:28:16;;;;;;;;;;;;;;;4.51;79.08;100752.28;4166323;28;20080;-67
2022/12/05 06:30:19;;;;;;;39.45;20.80;;;;;;;4.53;79.28;100748.06;4166797;28;20441;-68
2022/12/05 06:32:23;;;;;;;36.75;19.50;;;;;;;4.54;79.17;100755.00;4166700;28;20136;-68
2022/12/05 06:34:26;;;;;;;44.60;21.33;;;;;;;4.57;79.24;100755.94;4165980;28;20091;-68
2022/12/05 06:36:29;;;;;;;41.45;21.38;;;;;;;4.59;79.16;100769.78;4164592;28;20561;-68
2022/12/05 06:38:32;;;;;;;38.58;20.85;;;;;;;4.60;79.13;100771.50;4155462;28;20124;-68
2022/12/05 06:40:42;;;;;;;41.25;20.55;;;;;;;4.49;79.20;100768.47;4164039;28;20034;-68
2022/12/05 06:42:44;;;;;;;41.60;19.97;;;;;;;4.42;79.19;100767.31;4166267;28;20045;-67
2022/12/05 06:44:47;;;;;;;39.47;19.13;;;;;;;4.37;79.43;100772.25;4164001;28;20153;-67
2022/12/05 06:46:50;;;;;;;39.45;21.05;;;;;;;4.41;79.51;100774.97;4156136;28;20061;-67
2022/12/05 06:48:55;;;;;;;37.80;18.45;;;;;;;4.41;79.37;100778.44;4166216;28;20124;-68
2022/12/05 06:50:58;;;;;;;39.70;20.98;;;;;;;4.42;79.53;100781.88;4166466;28;20037;-68
2022/12/05 06:53:01;;;;;;;35.83;18.13;;;;;;;4.41;79.33;100781.03;4166254;28;20403;-67
2022/12/05 06:55:04;;;;;;;39.08;18.95;;;;;;;4.49;79.54;100796.78;4165630;28;20049;-67
2022/12/05 06:57:08;;;;;;;39.10;19.40;;;;;;;4.44;79.48;100796.59;4165178;28;20132;-68
2022/12/05 06:59:11;;;;;;;37.22;19.23;;;;;;;4.44;79.51;100795.69;4166415;28;20045;-68
2022/12/05 07:03:36;;;;;;;35.20;18.45;;;;;;;4.53;79.17;100798.69;4165483;28;20479;-67
2022/12/05 07:05:40;;;;;;;38.60;21.05;;;;;;;4.52;79.42;100802.06;4157458;28;20065;-67
2022/12/05 07:07:43;;;;;;;36.60;19.13;;;;;;;4.57;79.09;100802.28;4149911;28;20042;-68
2022/12/05 07:09:47;;;;;;;37.80;18.98;;;;;;;4.56;78.99;100803.97;4157489;28;20071;-67
2022/12/05 07:11:51;;;;;;;33.85;18.58;;;;;;;4.57;79.06;100803.19;4155730;28;20041;-68
2022/12/05 07:13:54;;;;;;;34.30;18.95;;;;;;;4.52;79.19;100808.09;4165276;28;20048;-67
2022/12/05 07:15:57;;;;;;;36.97;17.77;;;;;;;4.51;79.11;100805.47;4157693;28;20042;-67
2022/12/05 07:18:00;;;;;;;37.53;20.00;;;;;;;4.50;79.47;100799.44;4161246;28;20045;-68
2022/12/05 07:20:04;;;;;;;42.45;19.25;;;;;;;4.52;79.21;100814.94;4163661;28;20053;-68
2022/12/05 07:22:09;;;;;;;39.25;19.25;;;;;;;4.50;79.32;100814.88;4163489;28;20038;-67
2022/12/05 07:24:17;;;;;;;38.58;19.55;;;;;;;4.43;79.25;100822.28;4161076;28;20283;-68
2022/12/05 07:26:22;;;;;;;35.38;19.08;;;;;;;4.44;79.87;100827.50;4162180;28;20565;-67
2022/12/05 07:28:24;;;;;;;32.42;17.58;;;;;;;4.42;79.79;100816.22;4162708;28;20419;-67
2022/12/05 07:30:27;;;;;;;37.40;19.20;;;;;;;4.33;79.79;100816.69;4162293;28;20044;-67
2022/12/05 07:32:32;;;;;;;41.35;20.00;;;;;;;4.28;80.31;100814.72;4157136;28;20514;-68
2022/12/05 07:34:35;;;;;;;37.13;19.55;;;;;;;4.24;79.89;100815.41;4160807;28;20071;-67
2022/12/05 07:36:37;;;;;;;35.92;17.50;;;;;;;4.30;80.81;100818.25;4162310;28;20046;-67
2022/12/05 07:38:42;;;;;;;38.35;19.75;;;;;;;4.39;80.31;100816.09;4162072;28;20045;-68
2022/12/05 07:40:45;;;;;;;;;;;;;;;4.34;80.46;100808.16;4162238;28;20454;-67
2022/12/05 07:42:48;;;;;;;34.15;17.95;;;;;;;4.33;80.45;100813.25;4156887;28;20379;-67
2022/12/05 07:44:51;;;;;;;38.60;19.02;;;;;;;4.41;80.17;100818.72;4151235;28;20046;-68
2022/12/05 07:46:53;;;;;;;42.28;20.33;;;;;;;4.51;80.17;100821.81;4159991;28;20074;-67
2022/12/05 07:48:56;;;;;;;33.58;18.00;;;;;;;4.49;80.07;100823.41;4163080;28;20119;-67
2022/12/05 07:51:01;;;;;;;37.95;18.60;;;;;;;4.53;79.92;100827.03;4165357;28;20415;-68
2022/12/05 07:53:04;;;;;;;38.92;19.17;;;;;;;4.54;79.86;100827.09;4155970;28;20044;-68
2022/12/05 07:55:09;;;;;;;39.60;20.13;;;;;;;4.60;79.70;100816.19;4155512;28;20038;-67
2022/12/05 07:57:11;;;;;;;;;;;;;;;4.57;79.85;100826.34;4164771;28;20052;-68
2022/12/05 07:59:14;;;;;;;33.47;18.95;;;;;;;4.59;79.88;100823.84;4164296;28;19971;-67
2022/12/05 08:01:19;;;;;;;37.67;18.85;;;;;;;4.65;79.82;100829.25;4165348;28;20045;-67
2022/12/05 08:03:22;;;;;;;36.30;19.05;;;;;;;4.71;79.69;100826.94;4164665;28;20061;-68
2022/12/05 08:05:25;;;;;;;34.00;18.42;;;;;;;4.81;79.38;100833.38;4165217;28;20484;-67
2022/12/05 08:07:28;;;;;;;33.55;17.00;;;;;;;4.81;79.33;100836.84;4163870;28;20041;-68
2022/12/05 08:09:31;;;;;;;38.03;19.65;;;;;;;4.84;79.32;100836.97;4149247;28;20411;-67
2022/12/05 08:11:35;;;;;;;40.55;19.42;;;;;;;4.86;79.20;100845.66;4148894;28;20030;-68
2022/12/05 08:13:38;;;;;;;37.17;20.35;;;;;;;4.84;79.26;100844.69;4148060;28;20403;-68
2022/12/05 08:15:41;;;;;;;36.20;19.17;;;;;;;4.86;79.22;100845.66;4148800;28;20052;-67
2022/12/05 08:17:43;;;;;;;37.03;19.55;;;;;;;4.87;79.43;100852.53;4147513;28;20054;-67
2022/12/05 08:19:46;;;;;;;37.45;20.98;;;;;;;4.92;79.16;100857.03;4147398;28;20058;-67
2022/12/05 08:21:51;;;;;;;37.15;18.63;;;;;;;4.88;79.15;100856.03;4148678;28;20046;-68
2022/12/05 08:23:54;;;;;;;32.25;17.38;;;;;;;4.89;79.25;100860.34;4146947;28;20117;-68
2022/12/05 08:26:01;;;;;;;34.42;18.60;;;;;;;4.92;79.20;100859.59;4157412;28;20503;-67
2022/12/05 08:28:06;;;;;;;35.45;18.75;;;;;;;4.93;78.92;100856.22;4164937;28;20046;-68
2022/12/05 08:30:09;;;;;;;34.08;17.50;;;;;;;4.88;79.35;100858.59;4156964;28;20045;-67
2022/12/05 08:32:12;;;;;;;40.10;20.60;;;;;;;4.92;79.13;100875.06;4155100;28;20060;-67
2022/12/05 08:34:16;;;;;;;35.75;19.38;;;;;;;4.95;79.30;100864.88;4163934;28;20045;-68
2022/12/05 08:36:19;;;;;;;31.02;17.55;;;;;;;4.95;79.31;100867.47;4162238;28;20423;-67
2022/12/05 08:38:22;;;;;;;31.48;17.50;;;;;;;4.99;79.41;100861.63;4159559;28;20033;-68
2022/12/05 08:40:25;;;;;;;37.70;20.52;;;;;;;5.02;79.25;100862.66;4160448;28;20045;-68
2022/12/05 08:42:28;;;;;;;34.08;17.95;;;;;;;5.03;79.16;100872.13;4157309;28;20065;-67
2022/12/05 08:44:32;;;;;;;39.97;21.30;;;;;;;5.02;79.17;100872.97;4158447;28;20041;-68
2022/12/05 08:46:37;;;;;;;37.55;19.17;;;;;;;5.03;79.13;100869.56;4159212;28;20411;-67
2022/12/05 08:48:40;;;;;;;38.85;20.45;;;;;;;5.13;78.96;100876.00;4160558;28;20518;-68
2022/12/05 08:50:43;;;;;;;40.50;21.33;;;;;;;5.14;78.94;100872.59;4159465;28;20087;-68
2022/12/05 08:52:48;;;;;;;40.65;21.75;;;;;;;5.15;78.60;100871.78;4164390;28;20434;-68
2022/12/05 08:54:51;;;;;;;33.97;19.65;;;;;;;5.13;79.14;100881.16;4158591;28;20039;-68
2022/12/05 08:56:54;;;;;;;33.88;18.75;;;;;;;5.14;79.24;100880.34;4159452;28;20048;-68
2022/12/05 08:58:57;;;;;;;38.60;20.70;;;;;;;5.15;79.08;100883.78;4160683;28;20075;-68
2022/12/05 09:01:11;;;;;;;35.10;21.42;;;;;;;5.24;78.91;100894.47;4160688;28;20049;-67
2022/12/05 09:03:14;;;;;;;37.42;20.08;;;;;;;5.20;78.80;100893.47;4156075;28;20033;-68
2022/12/05 09:05:17;;;;;;;38.88;20.60;;;;;;;5.16;78.78;100894.16;4158209;28;20458;-68
2022/12/05 09:07:31;;;;;;;36.80;19.58;;;;;;;5.11;78.95;100894.78;4153949;28;20038;-67
2022/12/05 09:09:34;;;;;;;36.13;21.45;;;;;;;5.19;79.08;100896.00;4159345;28;20087;-67
2022/12/05 09:11:42;;;;;;;35.22;19.23;;;;;;;5.19;78.75;100906.31;4156194;28;20029;-67
2022/12/05 09:13:46;;;;;;;41.45;21.40;;;;;;;5.17;78.89;100903.66;4146461;28;20100;-68
2022/12/05 09:15:49;;;;;;;36.17;19.83;;;;;;;5.11;79.00;100903.41;4155665;28;20034;-68
2022/12/05 09:17:53;;;;;;;35.85;19.05;;;;;;;5.10;79.00;100917.09;4164237;28;20088;-67
2022/12/05 09:19:57;;;;;;;37.35;19.92;;;;;;;5.14;79.22;100913.84;4157895;28;20046;-67
2022/12/05 09:22:00;;;;;;;38.08;21.15;;;;;;;5.22;78.91;100912.47;4160315;28;20045;-67
2022/12/05 09:24:03;;;;;;;34.25;19.05;;;;;;;5.20;79.05;100924.41;4158373;28;20122;-68
2022/12/05 09:26:07;;;;;;;35.95;20.10;;;;;;;5.23;78.74;100919.38;4159322;28;20529;-67
2022/12/05 09:28:10;;;;;;;36.08;19.58;;;;;;;5.21;78.77;100931.34;4158569;28;20448;-68
2022/12/05 09:30:14;;;;;;;37.47;22.13;;;;;;;5.23;78.72;100924.53;4159289;28;20047;-67
2022/12/05 09:32:17;;;;;;;36.97;21.30;;;;;;;5.22;78.74;100927.94;4159296;28;20075;-67
2022/12/05 09:34:23;;;;;;;35.20;18.42;;;;;;;5.23;78.91;100919.38;4159731;28;20500;-67
2022/12/05 09:36:28;;;;;;;31.35;18.90;;;;;;;5.19;78.98;100925.22;4158114;28;20376;-67
2022/12/05 09:38:31;;;;;;;37.20;20.45;;;;;;;5.19;79.08;100921.78;4159295;28;20053;-67
2022/12/05 09:40:37;;;;;;;30.58;17.60;;;;;;;5.35;78.47;100931.91;4160643;28;20088;-67
2022/12/05 09:42:51;;;;;;;34.55;19.17;;;;;;;5.27;78.53;100929.81;4159652;28;20041;-67
2022/12/05 09:45:05;;;;;;;41.20;23.33;;;;;;;5.28;78.86;100932.47;4160750;28;20038;-67